sensor_id;sensor_type;location;lat;lon;timestamp;P1;durP1;ratioP1;P2;durP2;ratioP2
69912;SDS011;57198;52.082;5.108;2022-08-21T00:01:43;4.72;;;2.05;;
69912;SDS011;57198;52.082;5.108;2022-08-21T00:04:11;5.67;;;2.67;;
69912;SDS011;57198;52.082;5.108;2022-08-21T00:06:46;5.28;;;2.42;;
69912;SDS011;57198;52.082;5.108;2022-08-21T00:09:13;4.18;;;2.63;;
69912;SDS011;57198;52.082;5.108;2022-08-21T00:11:40;5.82;;;2.75;;
69912;SDS011;57198;52.082;5.108;2022-08-21T00:14:08;5.93;;;2.70;;
69912;SDS011;57198;52.082;5.108;2022-08-21T00:16:36;6.47;;;2.40;;
69912;SDS011;57198;52.082;5.108;2022-08-21T00:19:05;6.68;;;2.47;;
69912;SDS011;57198;52.082;5.108;2022-08-21T00:21:33;6.63;;;3.08;;
69912;SDS011;57198;52.082;5.108;2022-08-21T00:24:01;6.80;;;2.95;;
69912;SDS011;57198;52.082;5.108;2022-08-21T00:26:28;5.07;;;2.70;;
69912;SDS011;57198;52.082;5.108;2022-08-21T00:28:56;7.47;;;3.00;;
69912;SDS011;57198;52.082;5.108;2022-08-21T00:31:24;5.68;;;3.20;;
69912;SDS011;57198;52.082;5.108;2022-08-21T00:33:51;4.63;;;2.50;;
69912;SDS011;57198;52.082;5.108;2022-08-21T00:36:25;7.82;;;2.97;;
69912;SDS011;57198;52.082;5.108;2022-08-21T00:38:53;4.82;;;2.65;;
69912;SDS011;57198;52.082;5.108;2022-08-21T00:41:21;6.97;;;3.30;;
69912;SDS011;57198;52.082;5.108;2022-08-21T00:44:05;4.93;;;2.88;;
69912;SDS011;57198;52.082;5.108;2022-08-21T00:46:33;6.68;;;3.38;;
69912;SDS011;57198;52.082;5.108;2022-08-21T00:49:01;4.63;;;2.85;;
69912;SDS011;57198;52.082;5.108;2022-08-21T00:51:32;4.85;;;2.55;;
69912;SDS011;57198;52.082;5.108;2022-08-21T00:54:04;5.30;;;2.70;;
69912;SDS011;57198;52.082;5.108;2022-08-21T00:56:40;4.05;;;2.50;;
69912;SDS011;57198;52.082;5.108;2022-08-21T00:59:08;7.38;;;2.97;;
69912;SDS011;57198;52.082;5.108;2022-08-21T01:01:36;8.48;;;2.80;;
69912;SDS011;57198;52.082;5.108;2022-08-21T01:04:04;5.65;;;2.53;;
69912;SDS011;57198;52.082;5.108;2022-08-21T01:06:31;5.73;;;2.63;;
69912;SDS011;57198;52.082;5.108;2022-08-21T01:08:59;8.13;;;2.70;;
69912;SDS011;57198;52.082;5.108;2022-08-21T01:11:26;6.35;;;2.40;;
69912;SDS011;57198;52.082;5.108;2022-08-21T01:13:53;5.55;;;2.40;;
69912;SDS011;57198;52.082;5.108;2022-08-21T01:16:21;4.78;;;2.50;;
69912;SDS011;57198;52.082;5.108;2022-08-21T01:18:49;6.27;;;3.10;;
69912;SDS011;57198;52.082;5.108;2022-08-21T01:21:26;5.30;;;2.72;;
69912;SDS011;57198;52.082;5.108;2022-08-21T01:23:54;4.93;;;2.63;;
69912;SDS011;57198;52.082;5.108;2022-08-21T01:26:27;4.65;;;2.58;;
69912;SDS011;57198;52.082;5.108;2022-08-21T01:31:27;5.33;;;2.90;;
69912;SDS011;57198;52.082;5.108;2022-08-21T01:33:56;5.05;;;2.88;;
69912;SDS011;57198;52.082;5.108;2022-08-21T01:36:23;7.65;;;3.50;;
69912;SDS011;57198;52.082;5.108;2022-08-21T01:38:51;6.40;;;3.08;;
69912;SDS011;57198;52.082;5.108;2022-08-21T01:41:18;7.18;;;3.30;;
69912;SDS011;57198;52.082;5.108;2022-08-21T01:43:46;5.20;;;2.67;;
69912;SDS011;57198;52.082;5.108;2022-08-21T01:46:13;7.57;;;3.55;;
69912;SDS011;57198;52.082;5.108;2022-08-21T01:48:41;5.35;;;3.00;;
69912;SDS011;57198;52.082;5.108;2022-08-21T01:51:09;4.60;;;2.88;;
69912;SDS011;57198;52.082;5.108;2022-08-21T01:53:36;7.78;;;3.53;;
69912;SDS011;57198;52.082;5.108;2022-08-21T01:56:06;6.73;;;3.33;;
69912;SDS011;57198;52.082;5.108;2022-08-21T01:58:39;5.78;;;2.90;;
69912;SDS011;57198;52.082;5.108;2022-08-21T02:01:06;5.75;;;3.50;;
69912;SDS011;57198;52.082;5.108;2022-08-21T02:03:33;9.43;;;3.15;;
69912;SDS011;57198;52.082;5.108;2022-08-21T02:06:05;8.18;;;3.25;;
69912;SDS011;57198;52.082;5.108;2022-08-21T02:08:33;9.67;;;3.13;;
69912;SDS011;57198;52.082;5.108;2022-08-21T02:11:01;5.53;;;3.20;;
69912;SDS011;57198;52.082;5.108;2022-08-21T02:13:28;7.28;;;3.05;;
69912;SDS011;57198;52.082;5.108;2022-08-21T02:15:55;9.32;;;3.33;;
69912;SDS011;57198;52.082;5.108;2022-08-21T02:18:23;5.95;;;3.67;;
69912;SDS011;57198;52.082;5.108;2022-08-21T02:20:50;6.63;;;3.30;;
69912;SDS011;57198;52.082;5.108;2022-08-21T02:23:21;8.93;;;3.60;;
69912;SDS011;57198;52.082;5.108;2022-08-21T02:25:54;7.45;;;3.05;;
69912;SDS011;57198;52.082;5.108;2022-08-21T02:28:21;8.30;;;3.25;;
69912;SDS011;57198;52.082;5.108;2022-08-21T02:30:49;8.00;;;3.22;;
69912;SDS011;57198;52.082;5.108;2022-08-21T02:33:17;8.33;;;3.43;;
69912;SDS011;57198;52.082;5.108;2022-08-21T02:35:45;11.05;;;4.05;;
69912;SDS011;57198;52.082;5.108;2022-08-21T02:38:14;6.78;;;3.38;;
69912;SDS011;57198;52.082;5.108;2022-08-21T02:40:42;5.03;;;3.45;;
69912;SDS011;57198;52.082;5.108;2022-08-21T02:43:16;8.07;;;3.20;;
69912;SDS011;57198;52.082;5.108;2022-08-21T02:45:44;5.97;;;3.90;;
69912;SDS011;57198;52.082;5.108;2022-08-21T02:48:13;8.32;;;3.38;;
69912;SDS011;57198;52.082;5.108;2022-08-21T02:50:42;8.23;;;3.30;;
69912;SDS011;57198;52.082;5.108;2022-08-21T02:53:10;8.98;;;3.38;;
69912;SDS011;57198;52.082;5.108;2022-08-21T02:55:39;4.05;;;2.78;;
69912;SDS011;57198;52.082;5.108;2022-08-21T02:58:07;7.93;;;3.53;;
69912;SDS011;57198;52.082;5.108;2022-08-21T03:00:35;7.80;;;3.40;;
69912;SDS011;57198;52.082;5.108;2022-08-21T03:03:03;10.10;;;3.65;;
69912;SDS011;57198;52.082;5.108;2022-08-21T03:05:31;5.68;;;3.50;;
69912;SDS011;57198;52.082;5.108;2022-08-21T03:07:59;7.43;;;3.17;;
69912;SDS011;57198;52.082;5.108;2022-08-21T03:10:27;4.90;;;3.17;;
69912;SDS011;57198;52.082;5.108;2022-08-21T03:12:55;6.00;;;2.78;;
69912;SDS011;57198;52.082;5.108;2022-08-21T03:15:23;10.02;;;3.10;;
69912;SDS011;57198;52.082;5.108;2022-08-21T03:17:51;7.47;;;3.17;;
69912;SDS011;57198;52.082;5.108;2022-08-21T03:20:21;8.90;;;3.20;;
69912;SDS011;57198;52.082;5.108;2022-08-21T03:22:49;8.17;;;3.00;;
69912;SDS011;57198;52.082;5.108;2022-08-21T03:25:19;8.30;;;3.08;;
69912;SDS011;57198;52.082;5.108;2022-08-21T03:28:07;7.43;;;3.30;;
69912;SDS011;57198;52.082;5.108;2022-08-21T03:30:39;6.97;;;3.03;;
69912;SDS011;57198;52.082;5.108;2022-08-21T03:33:06;5.97;;;3.00;;
69912;SDS011;57198;52.082;5.108;2022-08-21T03:35:37;5.33;;;2.57;;
69912;SDS011;57198;52.082;5.108;2022-08-21T03:38:04;10.90;;;3.75;;
69912;SDS011;57198;52.082;5.108;2022-08-21T03:40:32;7.88;;;2.88;;
69912;SDS011;57198;52.082;5.108;2022-08-21T03:42:59;7.47;;;3.38;;
69912;SDS011;57198;52.082;5.108;2022-08-21T03:45:27;9.80;;;3.00;;
69912;SDS011;57198;52.082;5.108;2022-08-21T03:47:56;9.83;;;3.77;;
69912;SDS011;57198;52.082;5.108;2022-08-21T03:50:26;7.28;;;3.63;;
69912;SDS011;57198;52.082;5.108;2022-08-21T03:52:54;7.70;;;3.88;;
69912;SDS011;57198;52.082;5.108;2022-08-21T03:55:22;9.13;;;4.20;;
69912;SDS011;57198;52.082;5.108;2022-08-21T03:57:49;8.02;;;3.78;;
69912;SDS011;57198;52.082;5.108;2022-08-21T04:00:17;7.17;;;4.30;;
69912;SDS011;57198;52.082;5.108;2022-08-21T04:02:45;10.13;;;4.20;;
69912;SDS011;57198;52.082;5.108;2022-08-21T04:05:14;9.85;;;4.50;;
69912;SDS011;57198;52.082;5.108;2022-08-21T04:07:57;10.13;;;4.35;;
69912;SDS011;57198;52.082;5.108;2022-08-21T04:10:25;6.45;;;4.15;;
69912;SDS011;57198;52.082;5.108;2022-08-21T04:12:53;9.57;;;4.33;;
69912;SDS011;57198;52.082;5.108;2022-08-21T04:15:22;11.20;;;5.13;;
69912;SDS011;57198;52.082;5.108;2022-08-21T04:17:50;12.07;;;5.10;;
69912;SDS011;57198;52.082;5.108;2022-08-21T04:20:18;8.18;;;4.43;;
69912;SDS011;57198;52.082;5.108;2022-08-21T04:22:45;9.52;;;4.20;;
69912;SDS011;57198;52.082;5.108;2022-08-21T04:25:14;8.50;;;4.27;;
69912;SDS011;57198;52.082;5.108;2022-08-21T04:27:41;10.52;;;4.30;;
69912;SDS011;57198;52.082;5.108;2022-08-21T04:30:09;8.70;;;4.20;;
69912;SDS011;57198;52.082;5.108;2022-08-21T04:32:36;7.82;;;4.65;;
69912;SDS011;57198;52.082;5.108;2022-08-21T04:35:06;9.30;;;4.40;;
69912;SDS011;57198;52.082;5.108;2022-08-21T04:37:33;8.73;;;4.50;;
69912;SDS011;57198;52.082;5.108;2022-08-21T04:40:07;10.10;;;4.97;;
69912;SDS011;57198;52.082;5.108;2022-08-21T04:42:40;12.43;;;4.25;;
69912;SDS011;57198;52.082;5.108;2022-08-21T04:45:08;8.23;;;4.82;;
69912;SDS011;57198;52.082;5.108;2022-08-21T04:47:35;10.52;;;4.60;;
69912;SDS011;57198;52.082;5.108;2022-08-21T04:50:18;10.00;;;4.57;;
69912;SDS011;57198;52.082;5.108;2022-08-21T04:53:02;14.90;;;5.10;;
69912;SDS011;57198;52.082;5.108;2022-08-21T04:55:29;10.73;;;4.70;;
69912;SDS011;57198;52.082;5.108;2022-08-21T04:57:56;8.77;;;4.40;;
69912;SDS011;57198;52.082;5.108;2022-08-21T05:00:24;8.95;;;4.30;;
69912;SDS011;57198;52.082;5.108;2022-08-21T05:02:52;10.23;;;4.37;;
69912;SDS011;57198;52.082;5.108;2022-08-21T05:05:23;10.63;;;4.85;;
69912;SDS011;57198;52.082;5.108;2022-08-21T05:07:50;9.63;;;4.55;;
69912;SDS011;57198;52.082;5.108;2022-08-21T05:10:18;10.93;;;4.45;;
69912;SDS011;57198;52.082;5.108;2022-08-21T05:12:45;8.63;;;4.60;;
69912;SDS011;57198;52.082;5.108;2022-08-21T05:15:13;7.37;;;4.13;;
69912;SDS011;57198;52.082;5.108;2022-08-21T05:17:41;10.55;;;4.90;;
69912;SDS011;57198;52.082;5.108;2022-08-21T05:20:09;8.38;;;4.15;;
69912;SDS011;57198;52.082;5.108;2022-08-21T05:22:37;12.38;;;4.75;;
69912;SDS011;57198;52.082;5.108;2022-08-21T05:25:04;12.30;;;5.03;;
69912;SDS011;57198;52.082;5.108;2022-08-21T05:27:36;10.77;;;4.73;;
69912;SDS011;57198;52.082;5.108;2022-08-21T05:30:07;7.88;;;4.43;;
69912;SDS011;57198;52.082;5.108;2022-08-21T05:32:35;9.02;;;4.82;;
69912;SDS011;57198;52.082;5.108;2022-08-21T05:35:06;11.18;;;4.72;;
69912;SDS011;57198;52.082;5.108;2022-08-21T05:37:34;7.97;;;4.70;;
69912;SDS011;57198;52.082;5.108;2022-08-21T05:40:02;9.97;;;5.03;;
69912;SDS011;57198;52.082;5.108;2022-08-21T05:42:48;12.68;;;5.35;;
69912;SDS011;57198;52.082;5.108;2022-08-21T05:45:21;10.95;;;5.13;;
69912;SDS011;57198;52.082;5.108;2022-08-21T05:50:39;9.77;;;4.85;;
69912;SDS011;57198;52.082;5.108;2022-08-21T05:53:06;10.80;;;4.97;;
69912;SDS011;57198;52.082;5.108;2022-08-21T05:55:35;10.50;;;5.25;;
69912;SDS011;57198;52.082;5.108;2022-08-21T05:58:09;11.30;;;4.90;;
69912;SDS011;57198;52.082;5.108;2022-08-21T06:00:37;11.50;;;4.15;;
69912;SDS011;57198;52.082;5.108;2022-08-21T06:03:10;9.38;;;4.53;;
69912;SDS011;57198;52.082;5.108;2022-08-21T06:05:37;9.03;;;4.90;;
69912;SDS011;57198;52.082;5.108;2022-08-21T06:08:05;7.45;;;4.22;;
69912;SDS011;57198;52.082;5.108;2022-08-21T06:10:32;10.80;;;4.90;;
69912;SDS011;57198;52.082;5.108;2022-08-21T06:12:59;9.20;;;4.95;;
69912;SDS011;57198;52.082;5.108;2022-08-21T06:15:27;8.73;;;4.35;;
69912;SDS011;57198;52.082;5.108;2022-08-21T06:17:54;10.20;;;5.00;;
69912;SDS011;57198;52.082;5.108;2022-08-21T06:20:22;9.07;;;4.22;;
69912;SDS011;57198;52.082;5.108;2022-08-21T06:22:49;12.48;;;5.05;;
69912;SDS011;57198;52.082;5.108;2022-08-21T06:25:17;10.07;;;4.50;;
69912;SDS011;57198;52.082;5.108;2022-08-21T06:27:45;10.90;;;4.65;;
69912;SDS011;57198;52.082;5.108;2022-08-21T06:30:13;14.70;;;4.60;;
69912;SDS011;57198;52.082;5.108;2022-08-21T06:32:40;10.52;;;4.60;;
69912;SDS011;57198;52.082;5.108;2022-08-21T06:35:08;8.68;;;3.83;;
69912;SDS011;57198;52.082;5.108;2022-08-21T06:37:35;12.38;;;4.25;;
69912;SDS011;57198;52.082;5.108;2022-08-21T06:40:03;9.52;;;4.10;;
69912;SDS011;57198;52.082;5.108;2022-08-21T06:42:38;9.17;;;4.17;;
69912;SDS011;57198;52.082;5.108;2022-08-21T06:45:16;11.75;;;3.83;;
69912;SDS011;57198;52.082;5.108;2022-08-21T06:47:43;12.05;;;4.13;;
69912;SDS011;57198;52.082;5.108;2022-08-21T06:50:11;15.10;;;4.40;;
69912;SDS011;57198;52.082;5.108;2022-08-21T06:52:39;11.63;;;4.40;;
69912;SDS011;57198;52.082;5.108;2022-08-21T06:55:07;9.90;;;4.30;;
69912;SDS011;57198;52.082;5.108;2022-08-21T06:57:35;15.23;;;4.35;;
69912;SDS011;57198;52.082;5.108;2022-08-21T07:00:05;9.05;;;4.10;;
69912;SDS011;57198;52.082;5.108;2022-08-21T07:02:34;9.65;;;3.92;;
69912;SDS011;57198;52.082;5.108;2022-08-21T07:05:06;15.07;;;4.68;;
69912;SDS011;57198;52.082;5.108;2022-08-21T07:07:44;13.57;;;4.70;;
69912;SDS011;57198;52.082;5.108;2022-08-21T07:10:12;9.95;;;3.92;;
69912;SDS011;57198;52.082;5.108;2022-08-21T07:12:48;10.77;;;3.97;;
69912;SDS011;57198;52.082;5.108;2022-08-21T07:15:16;11.57;;;4.28;;
69912;SDS011;57198;52.082;5.108;2022-08-21T07:17:44;12.70;;;4.15;;
69912;SDS011;57198;52.082;5.108;2022-08-21T07:20:11;12.20;;;4.20;;
69912;SDS011;57198;52.082;5.108;2022-08-21T07:22:39;9.75;;;3.95;;
69912;SDS011;57198;52.082;5.108;2022-08-21T07:25:07;15.38;;;4.18;;
69912;SDS011;57198;52.082;5.108;2022-08-21T07:27:35;12.75;;;4.65;;
69912;SDS011;57198;52.082;5.108;2022-08-21T07:30:03;15.13;;;4.22;;
69912;SDS011;57198;52.082;5.108;2022-08-21T07:32:30;9.07;;;3.80;;
69912;SDS011;57198;52.082;5.108;2022-08-21T07:34:58;10.85;;;4.38;;
69912;SDS011;57198;52.082;5.108;2022-08-21T07:37:25;11.18;;;4.10;;
69912;SDS011;57198;52.082;5.108;2022-08-21T07:39:55;10.50;;;3.90;;
69912;SDS011;57198;52.082;5.108;2022-08-21T07:42:23;10.00;;;3.90;;
69912;SDS011;57198;52.082;5.108;2022-08-21T07:44:50;10.00;;;4.83;;
69912;SDS011;57198;52.082;5.108;2022-08-21T07:47:21;10.98;;;4.45;;
69912;SDS011;57198;52.082;5.108;2022-08-21T07:50:08;11.77;;;4.80;;
69912;SDS011;57198;52.082;5.108;2022-08-21T07:52:35;12.60;;;4.80;;
69912;SDS011;57198;52.082;5.108;2022-08-21T07:55:03;13.50;;;4.97;;
69912;SDS011;57198;52.082;5.108;2022-08-21T07:57:32;11.67;;;4.70;;
69912;SDS011;57198;52.082;5.108;2022-08-21T07:59:59;14.23;;;4.85;;
69912;SDS011;57198;52.082;5.108;2022-08-21T08:02:37;13.57;;;4.68;;
69912;SDS011;57198;52.082;5.108;2022-08-21T08:05:06;8.77;;;4.60;;
69912;SDS011;57198;52.082;5.108;2022-08-21T08:07:35;11.07;;;4.82;;
69912;SDS011;57198;52.082;5.108;2022-08-21T08:10:03;13.93;;;5.23;;
69912;SDS011;57198;52.082;5.108;2022-08-21T08:12:32;10.57;;;4.72;;
69912;SDS011;57198;52.082;5.108;2022-08-21T08:15:00;14.40;;;4.93;;
69912;SDS011;57198;52.082;5.108;2022-08-21T08:17:27;9.80;;;4.60;;
69912;SDS011;57198;52.082;5.108;2022-08-21T08:19:54;10.93;;;5.07;;
69912;SDS011;57198;52.082;5.108;2022-08-21T08:22:22;11.17;;;4.93;;
69912;SDS011;57198;52.082;5.108;2022-08-21T08:24:50;12.80;;;4.65;;
69912;SDS011;57198;52.082;5.108;2022-08-21T08:27:17;12.63;;;4.57;;
69912;SDS011;57198;52.082;5.108;2022-08-21T08:29:46;13.57;;;4.53;;
69912;SDS011;57198;52.082;5.108;2022-08-21T08:32:13;13.52;;;3.83;;
69912;SDS011;57198;52.082;5.108;2022-08-21T08:34:41;9.83;;;4.20;;
69912;SDS011;57198;52.082;5.108;2022-08-21T08:37:08;10.27;;;5.05;;
69912;SDS011;57198;52.082;5.108;2022-08-21T08:39:36;11.38;;;4.18;;
69912;SDS011;57198;52.082;5.108;2022-08-21T08:44:55;11.15;;;4.45;;
69912;SDS011;57198;52.082;5.108;2022-08-21T08:47:23;12.33;;;4.37;;
69912;SDS011;57198;52.082;5.108;2022-08-21T08:49:54;11.73;;;3.95;;
69912;SDS011;57198;52.082;5.108;2022-08-21T08:52:32;13.45;;;4.25;;
69912;SDS011;57198;52.082;5.108;2022-08-21T08:57:31;8.40;;;3.88;;
69912;SDS011;57198;52.082;5.108;2022-08-21T08:59:59;9.50;;;4.00;;
69912;SDS011;57198;52.082;5.108;2022-08-21T09:02:28;9.00;;;3.72;;
69912;SDS011;57198;52.082;5.108;2022-08-21T09:04:55;10.98;;;3.75;;
69912;SDS011;57198;52.082;5.108;2022-08-21T09:07:40;8.18;;;3.50;;
69912;SDS011;57198;52.082;5.108;2022-08-21T09:10:18;10.15;;;3.63;;
69912;SDS011;57198;52.082;5.108;2022-08-21T09:15:54;10.65;;;3.30;;
69912;SDS011;57198;52.082;5.108;2022-08-21T09:26:26;8.93;;;3.53;;
69912;SDS011;57198;52.082;5.108;2022-08-21T09:28:58;11.38;;;3.30;;
69912;SDS011;57198;52.082;5.108;2022-08-21T09:31:31;9.73;;;2.60;;
69912;SDS011;57198;52.082;5.108;2022-08-21T09:36:31;8.85;;;2.58;;
69912;SDS011;57198;52.082;5.108;2022-08-21T09:39:00;9.50;;;2.17;;
69912;SDS011;57198;52.082;5.108;2022-08-21T09:41:29;10.40;;;2.30;;
69912;SDS011;57198;52.082;5.108;2022-08-21T09:43:57;10.35;;;2.40;;
69912;SDS011;57198;52.082;5.108;2022-08-21T09:46:25;7.97;;;2.05;;
69912;SDS011;57198;52.082;5.108;2022-08-21T09:48:57;9.35;;;2.38;;
69912;SDS011;57198;52.082;5.108;2022-08-21T09:51:31;11.90;;;3.27;;
69912;SDS011;57198;52.082;5.108;2022-08-21T09:59:20;10.60;;;2.70;;
69912;SDS011;57198;52.082;5.108;2022-08-21T10:01:49;9.23;;;2.40;;
69912;SDS011;57198;52.082;5.108;2022-08-21T10:04:20;8.47;;;2.40;;
69912;SDS011;57198;52.082;5.108;2022-08-21T10:06:48;7.15;;;2.20;;
69912;SDS011;57198;52.082;5.108;2022-08-21T10:09:20;7.47;;;1.80;;
69912;SDS011;57198;52.082;5.108;2022-08-21T10:29:43;9.43;;;2.23;;
69912;SDS011;57198;52.082;5.108;2022-08-21T10:48:19;7.13;;;1.60;;
69912;SDS011;57198;52.082;5.108;2022-08-21T10:50:50;4.75;;;1.40;;
69912;SDS011;57198;52.082;5.108;2022-08-21T10:56:01;7.87;;;1.80;;
69912;SDS011;57198;52.082;5.108;2022-08-21T11:01:18;5.78;;;1.88;;
69912;SDS011;57198;52.082;5.108;2022-08-21T11:03:51;7.97;;;1.80;;
69912;SDS011;57198;52.082;5.108;2022-08-21T11:06:22;6.03;;;2.05;;
69912;SDS011;57198;52.082;5.108;2022-08-21T11:08:51;4.50;;;1.77;;
69912;SDS011;57198;52.082;5.108;2022-08-21T11:11:34;5.85;;;1.80;;
69912;SDS011;57198;52.082;5.108;2022-08-21T11:14:25;5.00;;;1.77;;
69912;SDS011;57198;52.082;5.108;2022-08-21T11:17:13;5.03;;;1.75;;
69912;SDS011;57198;52.082;5.108;2022-08-21T11:19:41;6.47;;;2.10;;
69912;SDS011;57198;52.082;5.108;2022-08-21T11:22:19;5.90;;;1.73;;
69912;SDS011;57198;52.082;5.108;2022-08-21T11:27:50;6.32;;;1.80;;
69912;SDS011;57198;52.082;5.108;2022-08-21T11:30:19;5.40;;;1.77;;
69912;SDS011;57198;52.082;5.108;2022-08-21T11:40:52;4.40;;;1.73;;
69912;SDS011;57198;52.082;5.108;2022-08-21T11:45:53;7.00;;;2.00;;
69912;SDS011;57198;52.082;5.108;2022-08-21T11:51:08;6.93;;;2.03;;
69912;SDS011;57198;52.082;5.108;2022-08-21T11:53:39;4.80;;;1.75;;
69912;SDS011;57198;52.082;5.108;2022-08-21T11:56:24;6.68;;;2.03;;
69912;SDS011;57198;52.082;5.108;2022-08-21T11:59:03;5.25;;;1.75;;
69912;SDS011;57198;52.082;5.108;2022-08-21T12:01:33;7.43;;;1.73;;
69912;SDS011;57198;52.082;5.108;2022-08-21T12:04:08;8.02;;;1.83;;
69912;SDS011;57198;52.082;5.108;2022-08-21T12:06:38;6.15;;;1.48;;
69912;SDS011;57198;52.082;5.108;2022-08-21T12:12:03;5.43;;;1.50;;
69912;SDS011;57198;52.082;5.108;2022-08-21T12:14:39;5.00;;;1.50;;
69912;SDS011;57198;52.082;5.108;2022-08-21T12:17:08;5.53;;;1.77;;
69912;SDS011;57198;52.082;5.108;2022-08-21T12:19:38;4.05;;;1.45;;
69912;SDS011;57198;52.082;5.108;2022-08-21T12:24:37;7.65;;;1.50;;
69912;SDS011;57198;52.082;5.108;2022-08-21T12:27:20;3.70;;;1.57;;
69912;SDS011;57198;52.082;5.108;2022-08-21T12:29:55;7.47;;;1.33;;
69912;SDS011;57198;52.082;5.108;2022-08-21T12:32:24;7.35;;;1.50;;
69912;SDS011;57198;52.082;5.108;2022-08-21T12:34:54;5.35;;;1.80;;
69912;SDS011;57198;52.082;5.108;2022-08-21T12:40:03;6.30;;;1.50;;
69912;SDS011;57198;52.082;5.108;2022-08-21T12:42:38;6.05;;;2.13;;
69912;SDS011;57198;52.082;5.108;2022-08-21T12:45:17;2.78;;;1.50;;
69912;SDS011;57198;52.082;5.108;2022-08-21T12:47:49;5.40;;;1.63;;
69912;SDS011;57198;52.082;5.108;2022-08-21T12:50:26;5.25;;;1.73;;
69912;SDS011;57198;52.082;5.108;2022-08-21T12:55:30;6.13;;;1.60;;
69912;SDS011;57198;52.082;5.108;2022-08-21T12:57:57;5.57;;;1.27;;
69912;SDS011;57198;52.082;5.108;2022-08-21T13:00:26;9.63;;;2.08;;
69912;SDS011;57198;52.082;5.108;2022-08-21T13:02:54;4.97;;;1.60;;
69912;SDS011;57198;52.082;5.108;2022-08-21T13:05:33;6.57;;;1.67;;
69912;SDS011;57198;52.082;5.108;2022-08-21T13:08:05;6.28;;;2.20;;
69912;SDS011;57198;52.082;5.108;2022-08-21T13:10:34;4.78;;;1.42;;
69912;SDS011;57198;52.082;5.108;2022-08-21T13:13:03;4.57;;;1.70;;
69912;SDS011;57198;52.082;5.108;2022-08-21T13:15:38;5.95;;;1.83;;
69912;SDS011;57198;52.082;5.108;2022-08-21T13:18:23;4.50;;;1.37;;
69912;SDS011;57198;52.082;5.108;2022-08-21T13:20:51;4.32;;;1.45;;
69912;SDS011;57198;52.082;5.108;2022-08-21T13:23:26;4.18;;;1.50;;
69912;SDS011;57198;52.082;5.108;2022-08-21T13:25:54;3.88;;;1.50;;
69912;SDS011;57198;52.082;5.108;2022-08-21T13:28:23;7.60;;;1.73;;
69912;SDS011;57198;52.082;5.108;2022-08-21T13:30:52;8.73;;;1.70;;
69912;SDS011;57198;52.082;5.108;2022-08-21T13:33:21;3.40;;;1.52;;
69912;SDS011;57198;52.082;5.108;2022-08-21T13:36:07;4.68;;;1.30;;
69912;SDS011;57198;52.082;5.108;2022-08-21T13:38:36;3.75;;;1.50;;
69912;SDS011;57198;52.082;5.108;2022-08-21T13:41:07;4.50;;;1.67;;
69912;SDS011;57198;52.082;5.108;2022-08-21T13:43:36;6.60;;;1.87;;
69912;SDS011;57198;52.082;5.108;2022-08-21T13:46:09;6.30;;;1.55;;
69912;SDS011;57198;52.082;5.108;2022-08-21T13:48:37;3.03;;;1.10;;
69912;SDS011;57198;52.082;5.108;2022-08-21T13:51:05;5.20;;;1.98;;
69912;SDS011;57198;52.082;5.108;2022-08-21T13:53:43;7.60;;;2.15;;
69912;SDS011;57198;52.082;5.108;2022-08-21T13:56:31;4.27;;;1.40;;
69912;SDS011;57198;52.082;5.108;2022-08-21T13:58:59;4.32;;;1.25;;
69912;SDS011;57198;52.082;5.108;2022-08-21T14:01:38;4.50;;;1.30;;
69912;SDS011;57198;52.082;5.108;2022-08-21T14:04:20;4.70;;;1.40;;
69912;SDS011;57198;52.082;5.108;2022-08-21T14:06:49;3.17;;;1.42;;
69912;SDS011;57198;52.082;5.108;2022-08-21T14:09:25;3.17;;;1.30;;
69912;SDS011;57198;52.082;5.108;2022-08-21T14:11:54;4.97;;;1.23;;
69912;SDS011;57198;52.082;5.108;2022-08-21T14:14:26;3.50;;;1.30;;
69912;SDS011;57198;52.082;5.108;2022-08-21T14:16:57;6.97;;;1.30;;
69912;SDS011;57198;52.082;5.108;2022-08-21T14:19:26;5.75;;;1.08;;
69912;SDS011;57198;52.082;5.108;2022-08-21T14:21:54;5.40;;;1.47;;
69912;SDS011;57198;52.082;5.108;2022-08-21T14:29:20;5.38;;;1.40;;
69912;SDS011;57198;52.082;5.108;2022-08-21T14:31:49;3.15;;;0.93;;
69912;SDS011;57198;52.082;5.108;2022-08-21T14:34:17;8.70;;;1.70;;
69912;SDS011;57198;52.082;5.108;2022-08-21T14:36:45;7.03;;;1.40;;
69912;SDS011;57198;52.082;5.108;2022-08-21T14:39:13;5.93;;;1.20;;
69912;SDS011;57198;52.082;5.108;2022-08-21T14:41:40;5.03;;;1.33;;
69912;SDS011;57198;52.082;5.108;2022-08-21T14:44:09;3.72;;;1.10;;
69912;SDS011;57198;52.082;5.108;2022-08-21T14:46:36;4.20;;;1.33;;
69912;SDS011;57198;52.082;5.108;2022-08-21T14:49:23;3.90;;;1.30;;
69912;SDS011;57198;52.082;5.108;2022-08-21T14:51:53;4.72;;;1.50;;
69912;SDS011;57198;52.082;5.108;2022-08-21T14:54:24;5.00;;;1.25;;
69912;SDS011;57198;52.082;5.108;2022-08-21T14:56:58;5.63;;;1.48;;
69912;SDS011;57198;52.082;5.108;2022-08-21T14:59:26;6.73;;;1.80;;
69912;SDS011;57198;52.082;5.108;2022-08-21T15:01:53;5.45;;;1.38;;
69912;SDS011;57198;52.082;5.108;2022-08-21T15:04:22;3.40;;;1.40;;
69912;SDS011;57198;52.082;5.108;2022-08-21T15:06:49;7.35;;;1.42;;
69912;SDS011;57198;52.082;5.108;2022-08-21T15:09:17;4.78;;;1.30;;
69912;SDS011;57198;52.082;5.108;2022-08-21T15:11:44;5.53;;;1.40;;
69912;SDS011;57198;52.082;5.108;2022-08-21T15:14:14;6.65;;;1.33;;
69912;SDS011;57198;52.082;5.108;2022-08-21T15:16:44;5.32;;;1.38;;
69912;SDS011;57198;52.082;5.108;2022-08-21T15:19:11;4.38;;;1.58;;
69912;SDS011;57198;52.082;5.108;2022-08-21T15:21:39;5.38;;;1.33;;
69912;SDS011;57198;52.082;5.108;2022-08-21T15:24:06;2.97;;;1.40;;
69912;SDS011;57198;52.082;5.108;2022-08-21T15:26:34;3.53;;;1.40;;
69912;SDS011;57198;52.082;5.108;2022-08-21T15:29:02;5.38;;;1.42;;
69912;SDS011;57198;52.082;5.108;2022-08-21T15:31:32;7.38;;;1.52;;
69912;SDS011;57198;52.082;5.108;2022-08-21T15:33:59;7.05;;;1.45;;
69912;SDS011;57198;52.082;5.108;2022-08-21T15:36:26;4.30;;;1.27;;
69912;SDS011;57198;52.082;5.108;2022-08-21T15:38:54;5.38;;;1.30;;
69912;SDS011;57198;52.082;5.108;2022-08-21T15:41:21;6.63;;;1.48;;
69912;SDS011;57198;52.082;5.108;2022-08-21T15:43:50;4.60;;;1.20;;
69912;SDS011;57198;52.082;5.108;2022-08-21T15:46:17;3.72;;;1.30;;
69912;SDS011;57198;52.082;5.108;2022-08-21T15:48:45;5.60;;;1.50;;
69912;SDS011;57198;52.082;5.108;2022-08-21T15:51:14;4.53;;;1.40;;
69912;SDS011;57198;52.082;5.108;2022-08-21T15:53:41;4.35;;;1.30;;
69912;SDS011;57198;52.082;5.108;2022-08-21T15:56:26;4.78;;;1.38;;
69912;SDS011;57198;52.082;5.108;2022-08-21T15:58:57;4.90;;;1.30;;
69912;SDS011;57198;52.082;5.108;2022-08-21T16:01:26;4.37;;;1.00;;
69912;SDS011;57198;52.082;5.108;2022-08-21T16:04:01;5.40;;;1.38;;
69912;SDS011;57198;52.082;5.108;2022-08-21T16:06:29;4.00;;;1.30;;
69912;SDS011;57198;52.082;5.108;2022-08-21T16:09:16;4.82;;;1.27;;
69912;SDS011;57198;52.082;5.108;2022-08-21T16:11:43;6.53;;;2.05;;
69912;SDS011;57198;52.082;5.108;2022-08-21T16:14:12;5.17;;;1.43;;
69912;SDS011;57198;52.082;5.108;2022-08-21T16:16:39;6.55;;;1.70;;
69912;SDS011;57198;52.082;5.108;2022-08-21T16:19:07;5.63;;;1.67;;
69912;SDS011;57198;52.082;5.108;2022-08-21T16:21:34;7.22;;;1.75;;
69912;SDS011;57198;52.082;5.108;2022-08-21T16:24:02;4.95;;;1.50;;
69912;SDS011;57198;52.082;5.108;2022-08-21T16:26:29;5.67;;;1.30;;
69912;SDS011;57198;52.082;5.108;2022-08-21T16:28:59;5.28;;;1.77;;
69912;SDS011;57198;52.082;5.108;2022-08-21T16:31:28;7.63;;;1.50;;
69912;SDS011;57198;52.082;5.108;2022-08-21T16:33:55;3.58;;;1.17;;
69912;SDS011;57198;52.082;5.108;2022-08-21T16:36:23;6.90;;;1.60;;
69912;SDS011;57198;52.082;5.108;2022-08-21T16:38:54;5.27;;;1.70;;
69912;SDS011;57198;52.082;5.108;2022-08-21T16:41:23;4.80;;;1.45;;
69912;SDS011;57198;52.082;5.108;2022-08-21T16:43:51;5.45;;;1.50;;